createdAt,value
2017-06-23T00:02:22.312Z,19.73
2017-06-23T00:04:49.723Z,21.80
2017-06-23T00:07:17.143Z,21.57
2017-06-23T00:09:44.564Z,22.73
2017-06-23T00:12:11.983Z,21.57
2017-06-23T00:14:39.403Z,20.17
2017-06-23T00:17:06.823Z,21.27
2017-06-23T00:19:34.255Z,22.90
2017-06-23T00:22:01.678Z,23.57
2017-06-23T00:24:29.100Z,22.53
2017-06-23T00:26:56.516Z,22.40
2017-06-23T00:29:23.923Z,20.93
2017-06-23T00:31:51.331Z,21.80
2017-06-23T00:34:18.751Z,23.83
2017-06-23T00:36:46.184Z,23.80
2017-06-23T00:39:13.614Z,22.93
2017-06-23T00:41:41.018Z,25.60
2017-06-23T00:44:08.652Z,27.00
2017-06-23T00:46:36.054Z,25.23
2017-06-23T00:49:03.474Z,25.13
2017-06-23T00:51:30.885Z,26.80
2017-06-23T00:53:58.323Z,25.00
2017-06-23T00:56:25.707Z,27.37
2017-06-23T00:58:53.127Z,26.93
2017-06-23T01:01:20.548Z,26.77
2017-06-23T01:03:47.967Z,25.27
2017-06-23T01:06:15.405Z,25.83
2017-06-23T01:08:42.833Z,24.80
2017-06-23T01:11:10.261Z,25.70
2017-06-23T01:13:37.680Z,25.53
2017-06-23T01:16:05.103Z,23.57
2017-06-23T01:18:32.529Z,25.83
2017-06-23T01:20:59.991Z,27.73
2017-06-23T01:23:27.401Z,27.97
2017-06-23T01:25:54.810Z,28.50
2017-06-23T01:28:22.219Z,25.90
2017-06-23T01:30:49.636Z,25.47
2017-06-23T01:33:17.057Z,24.07
2017-06-23T01:35:44.472Z,24.00
2017-06-23T01:38:11.892Z,25.30
2017-06-23T01:40:39.307Z,22.90
2017-06-23T01:43:06.732Z,23.33
2017-06-23T01:45:34.172Z,22.80
2017-06-23T01:48:01.599Z,20.47
2017-06-23T01:50:29.031Z,20.00
2017-06-23T01:52:56.440Z,21.10
2017-06-23T01:55:23.864Z,20.13
2017-06-23T01:57:51.268Z,20.67
2017-06-23T02:00:18.691Z,19.80
2017-06-23T02:02:46.109Z,18.97
2017-06-23T02:05:13.532Z,19.00
2017-06-23T02:07:40.947Z,19.07
2017-06-23T02:10:08.371Z,18.37
2017-06-23T02:12:35.776Z,20.27
2017-06-23T02:15:03.188Z,19.87
2017-06-23T02:17:30.610Z,19.63
2017-06-23T02:19:58.080Z,16.77
2017-06-23T02:22:25.505Z,17.00
2017-06-23T02:24:52.927Z,18.13
2017-06-23T02:27:20.347Z,17.47
2017-06-23T02:29:47.772Z,17.30
2017-06-23T02:32:15.199Z,16.40
2017-06-23T02:34:42.606Z,17.20
2017-06-23T02:37:10.025Z,15.60
2017-06-23T02:39:37.449Z,15.90
2017-06-23T02:42:04.868Z,14.67
2017-06-23T02:44:32.303Z,14.67
2017-06-23T02:46:59.716Z,14.87
2017-06-23T02:51:49.651Z,12.70
2017-06-23T02:54:17.042Z,13.60
2017-06-23T02:56:44.661Z,13.73
2017-06-23T02:59:12.059Z,13.50
2017-06-23T03:01:39.471Z,14.77
2017-06-23T03:04:06.866Z,14.53
2017-06-23T03:06:34.272Z,14.17
2017-06-23T03:09:01.680Z,13.93
2017-06-23T03:11:29.082Z,14.67
2017-06-23T03:13:56.484Z,13.20
2017-06-23T03:16:23.883Z,13.93
2017-06-23T03:18:51.288Z,13.30
2017-06-23T03:21:18.703Z,15.13
2017-06-23T03:23:46.103Z,14.43
2017-06-23T03:26:13.503Z,14.40
2017-06-23T03:28:40.907Z,14.80
2017-06-23T03:31:08.316Z,13.73
2017-06-23T03:33:35.723Z,14.57
2017-06-23T03:36:03.124Z,13.73
2017-06-23T03:38:30.531Z,13.70
2017-06-23T03:40:57.944Z,14.17
2017-06-23T03:43:25.355Z,12.40
2017-06-23T03:45:52.758Z,15.47
2017-06-23T03:48:20.167Z,14.83
2017-06-23T03:50:47.571Z,14.23
2017-06-23T03:53:14.990Z,14.73
2017-06-23T03:55:42.388Z,15.20
2017-06-23T03:58:09.795Z,12.97
2017-06-23T04:00:37.271Z,14.57
2017-06-23T04:03:04.727Z,15.27
2017-06-23T04:05:32.170Z,16.10
2017-06-23T04:07:59.581Z,15.07
2017-06-23T04:10:26.974Z,14.60
2017-06-23T04:12:54.387Z,14.73
2017-06-23T04:15:21.807Z,16.40
2017-06-23T04:17:49.207Z,16.43
2017-06-23T04:20:16.688Z,18.63
2017-06-23T04:22:44.097Z,19.53
2017-06-23T04:25:11.498Z,16.97
2017-06-23T04:27:38.899Z,16.03
2017-06-23T04:30:06.295Z,18.00
2017-06-23T04:32:33.718Z,15.10
2017-06-23T04:35:01.148Z,15.20
2017-06-23T04:37:28.536Z,15.70
2017-06-23T04:39:55.944Z,15.40
2017-06-23T04:42:23.353Z,16.20
2017-06-23T04:44:50.780Z,13.37
2017-06-23T04:47:18.174Z,12.40
2017-06-23T04:49:45.608Z,13.70
2017-06-23T04:52:13.019Z,12.77
2017-06-23T04:54:40.426Z,13.07
2017-06-23T04:57:08.046Z,13.30
2017-06-23T04:59:35.456Z,12.40
2017-06-23T05:02:02.852Z,10.10
2017-06-23T05:04:30.250Z,12.43
2017-06-23T05:06:57.662Z,11.63
2017-06-23T05:09:25.071Z,10.87
2017-06-23T05:11:52.468Z,11.60
2017-06-23T05:14:19.878Z,11.90
2017-06-23T05:16:47.285Z,11.67
2017-06-23T05:19:14.695Z,11.47
2017-06-23T05:21:42.091Z,11.90
2017-06-23T05:24:09.702Z,11.23
2017-06-23T05:26:37.107Z,11.30
2017-06-23T05:29:04.506Z,10.73
2017-06-23T05:31:32.126Z,10.67
2017-06-23T05:33:59.546Z,9.37
2017-06-23T05:36:26.978Z,9.20
2017-06-23T05:38:56.347Z,8.43
2017-06-23T05:41:23.761Z,8.57
2017-06-23T05:43:51.163Z,9.10
2017-06-23T05:46:18.571Z,9.03
2017-06-23T05:48:45.995Z,7.90
2017-06-23T05:51:13.418Z,9.60
2017-06-23T05:53:40.795Z,7.90
2017-06-23T05:56:08.195Z,7.80
2017-06-23T05:58:35.835Z,7.67
2017-06-23T06:01:03.237Z,7.67
2017-06-23T06:03:30.627Z,7.97
2017-06-23T06:05:58.035Z,6.87
2017-06-23T06:08:25.438Z,6.30
2017-06-23T06:10:52.851Z,6.80
2017-06-23T06:13:20.251Z,6.00
2017-06-23T06:15:47.655Z,6.30
2017-06-23T06:18:15.060Z,5.17
2017-06-23T06:20:42.474Z,5.70
2017-06-23T06:23:09.870Z,5.10
2017-06-23T06:25:37.262Z,5.07
2017-06-23T06:28:04.660Z,4.57
2017-06-23T06:30:32.069Z,4.07
2017-06-23T06:32:59.463Z,5.10
2017-06-23T06:35:26.883Z,4.13
2017-06-23T06:37:54.285Z,5.77
2017-06-23T06:40:21.692Z,5.77
2017-06-23T06:42:49.087Z,6.40
2017-06-23T06:45:16.480Z,5.53
2017-06-23T06:47:43.879Z,6.00
2017-06-23T06:50:11.271Z,5.70
2017-06-23T06:52:38.683Z,5.90
2017-06-23T06:55:06.071Z,6.50
2017-06-23T06:57:33.468Z,6.73
2017-06-23T07:00:00.866Z,6.03
2017-06-23T07:02:31.120Z,6.43
2017-06-23T07:04:58.514Z,7.20
2017-06-23T07:07:25.908Z,6.03
2017-06-23T07:09:53.538Z,6.83
2017-06-23T07:12:20.927Z,7.93
2017-06-23T07:14:48.332Z,6.80
2017-06-23T07:17:15.727Z,7.77
2017-06-23T07:19:43.139Z,8.10
2017-06-23T07:22:10.567Z,8.37
2017-06-23T07:24:37.977Z,9.40
2017-06-23T07:27:05.376Z,8.67
2017-06-23T07:29:32.777Z,9.70
2017-06-23T07:32:00.171Z,9.70
2017-06-23T07:34:27.607Z,9.80
2017-06-23T07:36:55.012Z,8.83
2017-06-23T07:39:22.420Z,8.70
2017-06-23T07:41:49.823Z,8.47
2017-06-23T07:44:17.235Z,8.93
2017-06-23T07:46:44.635Z,9.07
2017-06-23T07:49:12.042Z,8.50
2017-06-23T07:51:39.436Z,9.43
2017-06-23T07:54:06.847Z,8.27
2017-06-23T07:56:34.249Z,6.67
2017-06-23T07:59:01.648Z,7.60
2017-06-23T08:01:29.043Z,8.77
2017-06-23T08:03:56.451Z,9.00
2017-06-23T08:06:23.843Z,7.37
2017-06-23T08:08:51.263Z,7.03
2017-06-23T08:11:18.668Z,6.20
2017-06-23T08:13:46.089Z,7.60
2017-06-23T08:16:13.496Z,6.47
2017-06-23T08:18:40.892Z,5.50
2017-06-23T08:21:08.303Z,6.00
2017-06-23T08:23:35.694Z,6.20
2017-06-23T08:26:03.099Z,7.07
2017-06-23T08:28:30.499Z,6.10
2017-06-23T08:30:57.895Z,5.90
2017-06-23T08:33:25.297Z,6.63
2017-06-23T08:35:52.727Z,5.93
2017-06-23T08:38:20.107Z,7.23
2017-06-23T08:40:47.543Z,5.87
2017-06-23T08:43:14.941Z,5.33
2017-06-23T08:45:42.352Z,5.60
2017-06-23T08:48:09.758Z,6.33
2017-06-23T08:50:37.148Z,6.23
2017-06-23T08:53:04.547Z,8.10
2017-06-23T08:55:31.943Z,7.00
2017-06-23T08:57:59.342Z,7.03
2017-06-23T09:00:26.752Z,7.27
2017-06-23T09:02:54.143Z,6.93
2017-06-23T09:05:21.551Z,6.73
2017-06-23T09:07:48.942Z,7.03
2017-06-23T09:10:16.339Z,6.90
2017-06-23T09:12:43.752Z,7.73
2017-06-23T09:15:11.155Z,6.97
2017-06-23T09:17:38.555Z,7.73
2017-06-23T09:20:05.958Z,7.67
2017-06-23T09:22:33.364Z,7.10
2017-06-23T09:25:00.763Z,6.17
2017-06-23T09:27:28.175Z,6.97
2017-06-23T09:29:55.572Z,6.90
2017-06-23T09:32:22.980Z,5.97
2017-06-23T09:34:50.584Z,6.20
2017-06-23T09:37:18.004Z,6.07
2017-06-23T09:39:45.618Z,5.70
2017-06-23T09:42:13.025Z,6.50
2017-06-23T09:44:40.420Z,5.97
2017-06-23T09:47:07.824Z,6.93
2017-06-23T09:49:35.217Z,6.03
2017-06-23T09:52:02.632Z,5.50
2017-06-23T09:54:30.039Z,6.10
2017-06-23T09:56:57.438Z,6.20
2017-06-23T09:59:24.837Z,5.97
2017-06-23T10:01:52.231Z,6.40
2017-06-23T10:04:19.628Z,6.20
2017-06-23T10:06:47.048Z,7.70
2017-06-23T10:09:14.431Z,5.70
2017-06-23T10:11:41.836Z,5.93
2017-06-23T10:14:09.227Z,6.77
2017-06-23T10:16:36.639Z,6.80
2017-06-23T10:19:04.035Z,6.50
2017-06-23T10:21:31.445Z,6.00
2017-06-23T10:23:58.839Z,6.60
2017-06-23T10:26:26.999Z,6.20
2017-06-23T10:28:54.391Z,6.07
2017-06-23T10:31:21.798Z,6.40
2017-06-23T10:33:49.202Z,6.40
2017-06-23T10:36:16.619Z,6.30
2017-06-23T10:38:44.015Z,8.47
2017-06-23T10:41:11.417Z,7.90
2017-06-23T10:43:38.822Z,7.30
2017-06-23T10:46:06.215Z,6.07
2017-06-23T10:48:33.619Z,6.43
2017-06-23T10:51:01.012Z,6.70
2017-06-23T10:53:28.419Z,6.83
2017-06-23T10:55:55.822Z,6.83
2017-06-23T10:58:23.231Z,6.40
2017-06-23T11:00:50.627Z,7.67
2017-06-23T11:03:18.023Z,6.27
2017-06-23T11:05:45.455Z,7.50
2017-06-23T11:08:12.859Z,6.77
2017-06-23T11:10:40.283Z,6.97
2017-06-23T11:13:07.709Z,5.60
2017-06-23T11:15:35.095Z,6.33
2017-06-23T11:18:02.499Z,5.63
2017-06-23T11:20:29.896Z,6.30
2017-06-23T11:22:57.516Z,5.70
2017-06-23T11:25:24.925Z,7.30
2017-06-23T11:27:52.351Z,6.30
2017-06-23T11:30:19.755Z,6.27
2017-06-23T11:32:47.171Z,5.60
2017-06-23T11:35:14.559Z,6.57
2017-06-23T11:37:41.964Z,6.37
2017-06-23T11:40:09.360Z,5.93
2017-06-23T11:42:36.766Z,5.53
2017-06-23T11:45:04.151Z,6.00
2017-06-23T11:47:31.554Z,5.43
2017-06-23T11:49:58.956Z,5.37
2017-06-23T11:52:26.363Z,5.27
2017-06-23T11:54:54.005Z,4.80
2017-06-23T11:57:21.402Z,4.27
2017-06-23T11:59:48.819Z,5.30
2017-06-23T12:02:16.217Z,5.33
2017-06-23T12:04:43.623Z,5.33
2017-06-23T12:07:11.019Z,5.10
2017-06-23T12:09:38.422Z,5.67
2017-06-23T12:12:07.986Z,5.30
2017-06-23T12:14:35.411Z,4.60
2017-06-23T12:17:02.796Z,5.17
2017-06-23T12:19:30.283Z,6.50
2017-06-23T12:21:57.716Z,5.93
2017-06-23T12:24:25.128Z,6.00
2017-06-23T12:26:52.530Z,5.63
2017-06-23T12:29:19.931Z,5.03
2017-06-23T12:31:47.333Z,4.80
2017-06-23T12:34:14.732Z,5.87
2017-06-23T12:36:42.149Z,5.77
2017-06-23T12:39:09.540Z,5.20
2017-06-23T12:41:36.972Z,5.10
2017-06-23T12:44:04.587Z,4.53
2017-06-23T12:46:31.975Z,4.47
2017-06-23T12:48:59.591Z,5.20
2017-06-23T12:51:26.987Z,4.30
2017-06-23T12:53:54.383Z,4.43
2017-06-23T12:56:21.996Z,4.23
2017-06-23T12:58:49.417Z,3.93
2017-06-23T13:01:16.810Z,3.20
2017-06-23T13:03:44.439Z,3.50
2017-06-23T13:06:11.835Z,3.30
2017-06-23T13:08:39.234Z,3.50
2017-06-23T13:11:06.727Z,3.60
2017-06-23T13:13:34.118Z,3.00
2017-06-23T13:16:01.525Z,2.70
2017-06-23T13:18:28.915Z,2.43
2017-06-23T13:20:56.316Z,3.60
2017-06-23T13:23:23.707Z,3.67
2017-06-23T13:25:51.112Z,2.77
2017-06-23T13:28:18.507Z,3.60
2017-06-23T13:30:45.911Z,3.67
2017-06-23T13:33:13.320Z,4.47
2017-06-23T13:35:40.723Z,3.80
2017-06-23T13:38:08.122Z,3.87
2017-06-23T13:40:35.527Z,4.23
2017-06-23T13:43:02.932Z,4.70
2017-06-23T13:45:30.343Z,4.17
2017-06-23T13:47:57.995Z,4.53
2017-06-23T13:50:25.390Z,4.40
2017-06-23T13:52:52.784Z,4.30
2017-06-23T13:55:20.193Z,4.80
2017-06-23T13:57:47.667Z,4.20
2017-06-23T14:00:15.059Z,5.00
2017-06-23T14:02:42.462Z,5.10
2017-06-23T14:05:09.864Z,5.03
2017-06-23T14:07:37.278Z,4.57
2017-06-23T14:10:04.679Z,4.90
2017-06-23T14:12:32.082Z,3.80
2017-06-23T14:14:59.504Z,4.73
2017-06-23T14:17:26.909Z,5.80
2017-06-23T14:19:54.311Z,4.90
2017-06-23T14:22:21.719Z,4.23
2017-06-23T14:24:49.116Z,4.00
2017-06-23T14:27:16.527Z,3.93
2017-06-23T14:29:43.916Z,4.30
2017-06-23T14:32:11.317Z,3.63
2017-06-23T14:34:38.707Z,3.70
2017-06-23T14:37:06.117Z,3.87
2017-06-23T14:42:23.827Z,4.20
2017-06-23T14:44:51.218Z,3.27
2017-06-23T14:47:18.615Z,3.50
2017-06-23T14:49:46.006Z,3.10
2017-06-23T14:52:13.416Z,2.87
2017-06-23T14:54:40.825Z,3.30
2017-06-23T14:57:09.146Z,3.20
2017-06-23T14:59:36.523Z,3.20
2017-06-23T15:02:03.928Z,3.10
2017-06-23T15:04:31.535Z,3.37
2017-06-23T15:06:58.937Z,3.47
2017-06-23T15:09:26.542Z,3.20
2017-06-23T15:11:53.950Z,3.00
2017-06-23T15:14:21.343Z,3.43
2017-06-23T15:16:48.950Z,2.83
2017-06-23T15:19:16.351Z,3.60
2017-06-23T15:21:43.760Z,2.20
2017-06-23T15:24:11.148Z,2.20
2017-06-23T15:26:38.552Z,2.87
2017-06-23T15:29:05.946Z,2.77
2017-06-23T15:31:33.343Z,2.70
2017-06-23T15:34:00.739Z,3.07
2017-06-23T15:36:28.135Z,2.67
2017-06-23T15:38:55.527Z,2.60
2017-06-23T15:41:22.932Z,2.90
2017-06-23T15:43:50.318Z,2.60
2017-06-23T15:46:17.743Z,4.10
2017-06-23T15:48:45.134Z,2.60
2017-06-23T15:51:12.527Z,3.70
2017-06-23T15:53:39.920Z,3.50
2017-06-23T15:56:07.307Z,2.90
2017-06-23T15:58:34.704Z,2.67
2017-06-23T16:01:02.092Z,2.83
2017-06-23T16:03:29.505Z,3.67
2017-06-23T16:05:56.945Z,2.93
2017-06-23T16:08:24.335Z,3.70
2017-06-23T16:10:51.723Z,4.00
2017-06-23T16:13:19.123Z,4.13
2017-06-23T16:15:46.726Z,4.20
2017-06-23T16:18:15.054Z,4.27
2017-06-23T16:20:42.446Z,5.43
2017-06-23T16:23:09.840Z,4.43
2017-06-23T16:25:37.240Z,4.17
2017-06-23T16:28:04.623Z,3.93
2017-06-23T16:30:32.036Z,4.53
2017-06-23T16:32:59.441Z,4.10
2017-06-23T16:35:26.842Z,3.87
2017-06-23T16:37:54.233Z,4.07
2017-06-23T16:40:21.636Z,3.70
2017-06-23T16:42:49.039Z,4.03
2017-06-23T16:45:16.427Z,4.60
2017-06-23T16:47:43.823Z,4.80
2017-06-23T16:50:11.211Z,4.80
2017-06-23T16:52:38.611Z,5.00
2017-06-23T16:55:06.212Z,5.17
2017-06-23T16:57:33.595Z,4.87
2017-06-23T17:00:00.998Z,4.70
2017-06-23T17:02:28.392Z,6.03
2017-06-23T17:04:55.783Z,5.60
2017-06-23T17:07:23.184Z,5.60
2017-06-23T17:09:50.575Z,5.40
2017-06-23T17:12:17.971Z,5.00
2017-06-23T17:14:45.370Z,4.90
2017-06-23T17:17:12.763Z,4.73
2017-06-23T17:19:40.162Z,5.60
2017-06-23T17:22:07.555Z,5.63
2017-06-23T17:24:34.951Z,5.47
2017-06-23T17:27:02.426Z,4.43
2017-06-23T17:29:29.808Z,4.67
2017-06-23T17:31:57.195Z,5.80
2017-06-23T17:34:24.597Z,6.33
2017-06-23T17:36:51.974Z,5.70
2017-06-23T17:39:19.384Z,5.33
2017-06-23T17:41:46.779Z,5.30
2017-06-23T17:44:14.176Z,6.43
2017-06-23T17:46:41.566Z,6.47
2017-06-23T17:49:08.970Z,5.77
2017-06-23T17:51:36.363Z,7.30
2017-06-23T17:54:03.787Z,6.20
2017-06-23T17:56:31.184Z,5.90
2017-06-23T17:58:58.587Z,6.93
2017-06-23T18:01:25.982Z,5.87
2017-06-23T18:03:53.403Z,6.33
2017-06-23T18:06:20.794Z,5.87
2017-06-23T18:08:48.195Z,5.70
2017-06-23T18:11:15.591Z,5.83
2017-06-23T18:13:42.981Z,5.87
2017-06-23T18:16:10.396Z,6.50
2017-06-23T18:18:37.791Z,6.57
2017-06-23T18:21:05.191Z,7.40
2017-06-23T18:23:32.599Z,7.93
2017-06-23T18:25:59.991Z,8.67
2017-06-23T18:28:27.410Z,8.57
2017-06-23T18:30:54.823Z,8.63
2017-06-23T18:33:22.231Z,9.00
2017-06-23T18:35:49.623Z,9.47
2017-06-23T18:38:17.024Z,9.83
2017-06-23T18:40:44.419Z,8.90
2017-06-23T18:43:11.827Z,8.63
2017-06-23T18:45:39.221Z,8.57
2017-06-23T18:48:06.632Z,8.77
2017-06-23T18:50:34.024Z,9.03
2017-06-23T18:53:01.425Z,8.97
2017-06-23T18:55:28.811Z,8.23
2017-06-23T18:57:56.211Z,8.43
2017-06-23T19:00:23.612Z,8.90
2017-06-23T19:02:51.019Z,8.93
2017-06-23T19:05:18.443Z,9.00
2017-06-23T19:07:45.851Z,8.77
2017-06-23T19:10:13.256Z,9.07
2017-06-23T19:12:40.658Z,7.90
2017-06-23T19:15:08.054Z,8.20
2017-06-23T19:17:35.467Z,8.73
2017-06-23T19:20:02.851Z,9.13
2017-06-23T19:22:30.251Z,9.00
2017-06-23T19:24:57.663Z,8.47
2017-06-23T19:27:25.066Z,9.03
2017-06-23T19:29:52.475Z,8.70
2017-06-23T19:32:19.862Z,10.53
2017-06-23T19:34:47.526Z,9.17
2017-06-23T19:37:14.919Z,10.40
2017-06-23T19:39:42.321Z,9.40
2017-06-23T19:42:09.720Z,8.30
2017-06-23T19:44:37.135Z,10.33
2017-06-23T19:47:04.519Z,10.23
2017-06-23T19:49:31.922Z,11.60
2017-06-23T19:51:59.327Z,11.07
2017-06-23T19:57:18.891Z,11.20
2017-06-23T19:59:46.314Z,10.53
2017-06-23T20:02:13.720Z,12.00
2017-06-23T20:04:41.130Z,10.27
2017-06-23T20:07:08.527Z,9.73
2017-06-23T20:09:35.951Z,8.93
2017-06-23T20:12:03.355Z,9.47
2017-06-23T20:14:30.782Z,5.40
2017-06-23T20:16:58.155Z,4.60
2017-06-23T20:19:25.559Z,5.17
2017-06-23T20:21:52.959Z,3.47
2017-06-23T20:24:20.365Z,2.83
2017-06-23T20:26:47.760Z,3.10
2017-06-23T20:29:15.178Z,2.77
2017-06-23T20:31:42.562Z,2.77
2017-06-23T20:34:09.959Z,3.03
2017-06-23T20:36:37.350Z,2.57
2017-06-23T20:39:04.747Z,2.60
2017-06-23T20:41:33.068Z,2.87
2017-06-23T20:44:00.459Z,3.30
2017-06-23T20:46:27.851Z,3.27
2017-06-23T20:48:55.459Z,3.27
2017-06-23T20:51:22.847Z,3.27
2017-06-23T20:53:50.271Z,3.60
2017-06-23T20:56:17.689Z,2.77
2017-06-23T20:58:45.081Z,3.40
2017-06-23T21:01:12.466Z,3.73
2017-06-23T21:03:39.863Z,3.47
2017-06-23T21:06:07.292Z,3.10
2017-06-23T21:08:34.688Z,3.20
2017-06-23T21:11:02.825Z,3.07
2017-06-23T21:13:30.257Z,3.57
2017-06-23T21:15:57.665Z,3.60
2017-06-23T21:18:25.038Z,3.80
2017-06-23T21:20:52.439Z,3.33
2017-06-23T21:23:19.835Z,3.05
2017-06-23T21:25:47.235Z,3.60
2017-06-23T21:28:15.356Z,3.73
2017-06-23T21:30:42.794Z,3.83
2017-06-23T21:33:10.175Z,3.43
2017-06-23T21:35:37.571Z,3.80
2017-06-23T21:38:04.961Z,3.57
2017-06-23T21:40:44.052Z,3.30
2017-06-23T21:43:11.445Z,2.87
2017-06-23T21:45:38.838Z,3.00
2017-06-23T21:48:06.227Z,3.20
2017-06-23T21:50:33.619Z,2.73
2017-06-23T21:53:01.016Z,4.33
2017-06-23T21:55:28.407Z,4.20
2017-06-23T21:57:55.799Z,3.20
2017-06-23T22:00:23.205Z,2.97
2017-06-23T22:02:50.601Z,3.40
2017-06-23T22:05:17.991Z,3.23
2017-06-23T22:07:45.382Z,3.20
2017-06-23T22:10:12.809Z,3.70
2017-06-23T22:12:40.211Z,3.23
2017-06-23T22:15:07.619Z,3.57
2017-06-23T22:17:35.017Z,3.90
2017-06-23T22:20:02.418Z,3.70
2017-06-23T22:22:29.827Z,3.63
2017-06-23T22:24:57.222Z,3.57
2017-06-23T22:27:24.615Z,3.63
2017-06-23T22:29:52.003Z,4.80
2017-06-23T22:32:19.405Z,4.03
2017-06-23T22:34:46.799Z,4.27
2017-06-23T22:37:14.195Z,4.83
2017-06-23T22:39:42.154Z,4.60
2017-06-23T22:42:09.559Z,5.17
2017-06-23T22:44:36.951Z,4.63
2017-06-23T22:47:04.351Z,4.97
2017-06-23T22:49:31.739Z,4.73
2017-06-23T22:51:59.147Z,4.70
2017-06-23T22:54:26.538Z,4.93
2017-06-23T22:56:53.941Z,5.57
2017-06-23T22:59:21.352Z,5.70
2017-06-23T23:01:48.743Z,5.23
2017-06-23T23:04:16.143Z,5.80
2017-06-23T23:06:43.547Z,5.30
2017-06-23T23:09:10.939Z,6.57
2017-06-23T23:11:38.336Z,5.40
2017-06-23T23:14:05.731Z,5.23
2017-06-23T23:16:33.156Z,6.30
2017-06-23T23:19:00.554Z,6.87
2017-06-23T23:21:27.952Z,6.70
2017-06-23T23:23:55.355Z,6.47
2017-06-23T23:26:22.757Z,5.83
2017-06-23T23:28:50.154Z,5.27
2017-06-23T23:31:17.582Z,7.03
2017-06-23T23:33:44.972Z,7.17
2017-06-23T23:36:12.359Z,5.50
2017-06-23T23:38:39.759Z,5.57
2017-06-23T23:41:07.442Z,6.03
2017-06-23T23:43:34.839Z,5.90
2017-06-23T23:46:02.235Z,5.53
2017-06-23T23:48:29.631Z,6.13
2017-06-23T23:50:57.029Z,4.90
2017-06-23T23:53:24.434Z,5.40
2017-06-23T23:55:51.832Z,6.30
2017-06-23T23:58:19.227Z,5.77
